Time;durP1;ratioP1;P1;durP2;ratioP2;P2;SDS_P1;SDS_P2;PMS_P1;PMS_P2;Temp;Humidity;BMP_temperature;BMP_pressure;BME280_temperature;BME280_humidity;BME280_pressure;Samples;Min_cycle;Max_cycle;Signal;HPM_P1;HPM_P2
2022/10/12 00:02:18;;;;;;;26.35;15.57;;;12.10;51.40;;;;;;7364139;19;20011;-70
2022/10/12 00:04:48;;;;;;;29.95;16.08;;;12.10;52.00;;;;;;7361738;19;20102;-69
2022/10/12 00:07:18;;;;;;;24.50;15.77;;;12.10;52.60;;;;;;7353926;19;20006;-71
2022/10/12 00:09:48;;;;;;;33.03;17.50;;;12.10;53.20;;;;;;7360379;19;20430;-70
2022/10/12 00:12:18;;;;;;;26.98;17.42;;;12.00;53.60;;;;;;7362229;19;20035;-69
2022/10/12 00:14:48;;;;;;;29.33;15.40;;;12.00;53.40;;;;;;7387571;19;20011;-70
2022/10/12 00:17:20;;;;;;;26.35;16.48;;;11.90;54.20;;;;;;7359999;19;20489;-70
2022/10/12 00:19:51;;;;;;;26.60;16.67;;;11.90;55.10;;;;;;7366750;19;20356;-69
2022/10/12 00:22:21;;;;;;;32.08;17.00;;;12.00;55.20;;;;;;7370233;19;20015;-70
2022/10/12 00:24:51;;;;;;;27.73;15.48;;;12.00;55.30;;;;;;7370119;19;20007;-69
2022/10/12 00:27:21;;;;;;;31.60;16.70;;;12.00;55.20;;;;;;7360188;19;20027;-70
2022/10/12 00:29:51;;;;;;;22.20;15.20;;;12.00;55.00;;;;;;7389016;19;20015;-70
2022/10/12 00:32:23;;;;;;;26.63;15.68;;;11.90;54.90;;;;;;7369314;19;20518;-70
2022/10/12 00:34:53;;;;;;;26.30;16.38;;;11.90;55.10;;;;;;7366217;19;20118;-70
2022/10/12 00:37:22;;;;;;;26.30;15.70;;;11.90;55.20;;;;;;7361418;19;20006;-70
2022/10/12 00:39:52;;;;;;;25.20;16.83;;;11.80;55.10;;;;;;7366245;19;20018;-69
2022/10/12 00:42:22;;;;;;;21.90;15.43;;;11.80;55.10;;;;;;7369614;19;20470;-69
2022/10/12 00:44:53;;;;;;;25.75;15.75;;;11.80;55.10;;;;;;7390895;19;20014;-69
2022/10/12 00:47:32;;;;;;;32.30;16.98;;;11.70;56.50;;;;;;7358827;19;20010;-69
2022/10/12 00:50:08;;;;;;;31.17;17.90;;;11.80;57.20;;;;;;7366223;19;20034;-69
2022/10/12 00:52:42;;;;;;;30.92;17.08;;;11.80;57.20;;;;;;7367905;19;20403;-70
2022/10/12 00:55:16;;;;;;;28.63;16.25;;;11.70;56.60;;;;;;7368518;19;20021;-69
2022/10/12 00:57:46;;;;;;;31.83;16.75;;;11.70;56.90;;;;;;7359721;19;20011;-70
2022/10/12 01:00:18;;;;;;;26.55;16.45;;;11.70;57.20;;;;;;7366029;19;20123;-69
2022/10/12 01:02:53;;;;;;;24.02;15.75;;;11.70;57.20;;;;;;7390166;19;20007;-69
2022/10/12 01:05:24;;;;;;;30.95;17.27;;;11.70;57.40;;;;;;7367221;19;20049;-69
2022/10/12 01:07:54;;;;;;;24.60;16.23;;;11.70;58.00;;;;;;7361479;19;20014;-69
2022/10/12 01:10:24;;;;;;;27.08;16.40;;;11.60;57.60;;;;;;7366059;19;20417;-69
2022/10/12 01:12:54;;;;;;;25.55;16.75;;;11.60;57.90;;;;;;7367668;19;20022;-71
2022/10/12 01:15:28;;;;;;;26.00;16.90;;;11.60;58.10;;;;;;7367559;19;20011;-70
2022/10/12 01:18:07;;;;;;;28.85;17.73;;;11.60;58.40;;;;;;7382444;19;21048;-69
2022/10/12 01:20:50;;;;;;;25.45;16.95;;;11.60;58.50;;;;;;7365498;19;20084;-69
2022/10/12 01:24:01;;;;;;;30.73;18.13;;;11.60;58.40;;;;;;7366353;19;20015;-70
2022/10/12 01:27:00;;;;;;;27.40;17.63;;;11.60;58.40;;;;;;7360069;19;20035;-70
2022/10/12 01:30:06;;;;;;;30.70;17.83;;;11.50;58.10;;;;;;7367233;19;20484;-70
2022/10/12 01:32:53;;;;;;;26.75;18.30;;;11.50;58.50;;;;;;7365631;19;20021;-70
2022/10/12 01:35:29;;;;;;;28.55;18.63;;;11.40;58.40;;;;;;7366414;19;20015;-70
2022/10/12 01:38:06;;;;;;;29.13;18.45;;;11.40;58.60;;;;;;7361650;19;20011;-70
2022/10/12 01:40:41;;;;;;;26.83;18.88;;;11.40;58.70;;;;;;7369331;19;20006;-70
2022/10/12 01:43:10;;;;;;;;;;;11.40;58.70;;;;;;7370223;19;20717;-70
2022/10/12 01:45:40;;;;;;;25.58;17.00;;;11.40;58.70;;;;;;7370551;19;19933;-70
2022/10/12 01:48:12;;;;;;;28.23;17.55;;;11.30;58.70;;;;;;7368235;19;20470;-69
2022/10/12 01:50:50;;;;;;;29.10;17.48;;;11.20;58.50;;;;;;7391165;19;20014;-69
2022/10/12 01:53:31;;;;;;;33.67;17.63;;;11.10;58.80;;;;;;7368663;19;20027;-69
2022/10/12 01:56:08;;;;;;;27.42;18.48;;;11.10;60.40;;;;;;7368398;19;20784;-69
2022/10/12 01:58:51;;;;;;;28.58;17.20;;;11.10;60.90;;;;;;7367821;19;20537;-69
2022/10/12 02:01:27;;;;;;;26.38;18.05;;;11.00;60.30;;;;;;7369188;19;20713;-70
2022/10/12 02:04:05;;;;;;;26.45;17.60;;;10.90;60.50;;;;;;7367480;19;20014;-69
2022/10/12 02:06:43;;;;;;;29.45;17.30;;;10.90;61.50;;;;;;7367794;19;20011;-69
2022/10/12 02:09:20;;;;;;;25.95;18.55;;;10.80;62.00;;;;;;7369255;19;20040;-70
2022/10/12 02:11:53;;;;;;;30.23;19.65;;;10.80;62.30;;;;;;7391662;19;20025;-69
2022/10/12 02:14:25;;;;;;;34.50;21.75;;;10.80;63.60;;;;;;7368482;19;20006;-69
2022/10/12 02:16:59;;;;;;;26.60;19.45;;;10.80;64.10;;;;;;7366724;19;20126;-70
2022/10/12 02:19:35;;;;;;;34.20;22.33;;;10.80;64.40;;;;;;7367760;19;20022;-69
2022/10/12 02:22:09;;;;;;;39.53;22.02;;;10.70;64.30;;;;;;7369249;19;20488;-69
2022/10/12 02:24:40;;;;;;;33.65;21.80;;;10.70;65.00;;;;;;7368785;19;20014;-70
2022/10/12 02:27:12;;;;;;;32.35;22.10;;;10.70;65.50;;;;;;7368116;19;20006;-69
2022/10/12 02:29:44;;;;;;;34.70;21.35;;;10.70;65.50;;;;;;7389848;19;20018;-69
2022/10/12 02:32:21;;;;;;;30.63;21.83;;;10.70;66.20;;;;;;7368100;19;20006;-69
2022/10/12 02:34:58;;;;;;;29.25;20.65;;;10.80;66.40;;;;;;7367599;19;20014;-70
2022/10/12 02:37:36;;;;;;;31.48;20.80;;;10.80;66.50;;;;;;7365034;19;20017;-70
2022/10/12 02:40:12;;;;;;;31.20;20.65;;;10.90;66.60;;;;;;7367966;19;20010;-70
2022/10/12 02:42:47;;;;;;;32.58;20.73;;;10.90;66.70;;;;;;7367508;19;20010;-69
2022/10/12 02:45:39;;;;;;;31.20;18.73;;;11.00;66.70;;;;;;7368627;19;20352;-69
2022/10/12 02:48:10;;;;;;;32.03;18.80;;;11.00;66.60;;;;;;7372834;19;20014;-70
2022/10/12 02:50:43;;;;;;;33.58;19.08;;;11.00;66.50;;;;;;7389627;19;20014;-69
2022/10/12 02:53:14;;;;;;;25.73;17.27;;;11.00;66.10;;;;;;7367602;19;20351;-69
2022/10/12 02:55:50;;;;;;;27.42;16.45;;;11.10;65.50;;;;;;7368009;19;20486;-70
2022/10/12 02:58:20;;;;;;;27.15;16.10;;;11.10;64.70;;;;;;7367843;19;20039;-68
2022/10/12 03:00:50;;;;;;;28.25;16.38;;;11.10;64.50;;;;;;7365602;19;20003;-69
2022/10/12 03:03:20;;;;;;;29.58;17.48;;;11.00;63.70;;;;;;7367429;19;20030;-69
2022/10/12 03:05:52;;;;;;;27.90;15.60;;;11.10;64.20;;;;;;7389906;19;20014;-70
2022/10/12 03:08:22;;;;;;;27.15;16.17;;;11.00;63.90;;;;;;7366994;19;20098;-69
2022/10/12 03:10:52;;;;;;;30.00;18.25;;;11.10;64.80;;;;;;7366576;19;20072;-69
2022/10/12 03:13:22;;;;;;;29.40;17.50;;;11.10;64.70;;;;;;7367181;19;20027;-69
2022/10/12 03:15:52;;;;;;;25.45;16.50;;;11.10;64.50;;;;;;7365890;19;20014;-69
2022/10/12 03:18:21;;;;;;;24.80;16.40;;;11.10;64.80;;;;;;7367653;19;20038;-69
2022/10/12 03:20:54;;;;;;;25.83;15.82;;;11.20;65.30;;;;;;7389088;19;20050;-70
2022/10/12 03:23:23;;;;;;;27.73;16.40;;;11.10;64.00;;;;;;7365493;19;20007;-70
2022/10/12 03:25:54;;;;;;;26.73;16.63;;;11.20;64.20;;;;;;7367223;19;20129;-70
2022/10/12 03:28:23;;;;;;;31.60;16.67;;;11.20;64.30;;;;;;7367054;19;20026;-69
2022/10/12 03:30:53;;;;;;;30.25;16.17;;;11.20;64.20;;;;;;7365938;19;20042;-68
2022/10/12 03:33:23;;;;;;;26.25;16.70;;;11.30;64.10;;;;;;7366493;19;20050;-70
2022/10/12 03:35:56;;;;;;;26.80;16.20;;;11.20;62.70;;;;;;7389658;19;20035;-69
2022/10/12 03:38:25;;;;;;;23.33;15.93;;;11.30;63.50;;;;;;7366915;19;20022;-69
2022/10/12 03:40:56;;;;;;;24.45;16.42;;;11.30;63.00;;;;;;7365207;19;20010;-69
2022/10/12 03:43:26;;;;;;;27.08;16.75;;;11.30;62.90;;;;;;7365276;19;20011;-69
2022/10/12 03:45:55;;;;;;;24.38;15.45;;;11.30;62.60;;;;;;7366450;19;20615;-69
2022/10/12 03:48:25;;;;;;;27.15;16.23;;;11.30;62.60;;;;;;7365851;19;20534;-69
2022/10/12 03:50:57;;;;;;;25.55;17.42;;;11.20;61.80;;;;;;7395753;19;20022;-69
2022/10/12 03:53:27;;;;;;;29.75;17.73;;;11.30;62.30;;;;;;7372481;19;20391;-69
2022/10/12 03:55:57;;;;;;;26.88;15.88;;;11.20;62.50;;;;;;7370811;19;20014;-70
2022/10/12 03:58:27;;;;;;;25.05;15.93;;;11.20;62.50;;;;;;7372139;19;20034;-70
2022/10/12 04:00:57;;;;;;;30.65;17.50;;;11.20;62.60;;;;;;7372031;19;20019;-70
2022/10/12 04:03:27;;;;;;;28.90;17.88;;;11.10;62.40;;;;;;7372235;19;20086;-69
2022/10/12 04:06:00;;;;;;;25.30;16.88;;;11.10;62.50;;;;;;7396588;19;20015;-69
2022/10/12 04:08:30;;;;;;;36.28;17.10;;;11.10;62.50;;;;;;7372409;19;20020;-70
2022/10/12 04:11:00;;;;;;;32.25;18.58;;;11.10;62.80;;;;;;7372441;19;20010;-70
2022/10/12 04:13:29;;;;;;;30.80;17.73;;;11.00;62.80;;;;;;7371912;19;20007;-70
2022/10/12 04:16:04;;;;;;;24.33;17.67;;;11.10;63.50;;;;;;7372694;19;20015;-70
2022/10/12 04:18:35;;;;;;;23.23;16.10;;;11.00;62.90;;;;;;7370053;19;20011;-69
2022/10/12 04:21:10;;;;;;;37.15;18.65;;;11.00;63.10;;;;;;7394923;19;20018;-69
2022/10/12 04:23:40;;;;;;;32.42;18.55;;;11.00;63.60;;;;;;7371633;19;20010;-70
2022/10/12 04:26:10;;;;;;;26.23;17.35;;;11.00;63.70;;;;;;7372418;19;20018;-70
2022/10/12 04:28:40;;;;;;;32.50;18.08;;;11.00;63.80;;;;;;7369714;19;20059;-69
2022/10/12 04:31:10;;;;;;;31.20;17.13;;;10.90;63.00;;;;;;7372328;19;20061;-69
2022/10/12 04:33:40;;;;;;;28.38;17.60;;;10.90;63.90;;;;;;7370547;19;20030;-69
2022/10/12 04:36:12;;;;;;;24.58;17.42;;;10.90;64.00;;;;;;7394923;19;20014;-69
2022/10/12 04:38:42;;;;;;;26.33;16.95;;;11.00;64.60;;;;;;7369208;19;20018;-69
2022/10/12 04:41:11;;;;;;;30.05;18.13;;;11.00;64.30;;;;;;7372458;19;20014;-69
2022/10/12 04:43:41;;;;;;;30.25;18.73;;;11.00;63.70;;;;;;7371324;19;20400;-69
2022/10/12 04:46:11;;;;;;;26.70;17.50;;;11.00;64.00;;;;;;7372503;19;20011;-69
2022/10/12 04:48:41;;;;;;;32.33;18.60;;;11.10;64.20;;;;;;7370814;19;20355;-69
2022/10/12 04:51:13;;;;;;;25.73;18.40;;;11.20;64.80;;;;;;7393705;19;20014;-69
2022/10/12 04:53:43;;;;;;;28.27;19.27;;;11.20;64.40;;;;;;7370238;19;20011;-69
2022/10/12 04:56:13;;;;;;;27.30;17.15;;;11.20;64.50;;;;;;7371597;19;20010;-70
2022/10/12 04:58:42;;;;;;;29.60;17.67;;;11.20;64.20;;;;;;7369374;19;20018;-70
2022/10/12 05:01:12;;;;;;;25.80;17.75;;;11.20;63.20;;;;;;7368360;19;20202;-71
2022/10/12 05:03:42;;;;;;;24.65;16.45;;;11.30;63.40;;;;;;7370260;19;20014;-69
2022/10/12 05:06:15;;;;;;;25.60;17.27;;;11.20;62.90;;;;;;7393394;19;20006;-70
2022/10/12 05:08:44;;;;;;;30.10;16.95;;;11.30;62.80;;;;;;7369956;19;20014;-69
2022/10/12 05:11:15;;;;;;;24.90;17.30;;;11.20;61.30;;;;;;7371076;19;20007;-70
2022/10/12 05:13:45;;;;;;;23.60;14.48;;;11.10;60.90;;;;;;7369706;19;20478;-68
2022/10/12 05:16:14;;;;;;;26.85;15.48;;;11.20;61.40;;;;;;7370938;19;20486;-71
2022/10/12 05:18:44;;;;;;;21.70;14.90;;;11.20;61.40;;;;;;7368318;19;20007;-70
2022/10/12 05:21:17;;;;;;;24.60;15.48;;;11.20;61.10;;;;;;7392763;19;20030;-70
2022/10/12 05:23:46;;;;;;;25.58;15.77;;;11.20;60.90;;;;;;7369831;19;20052;-69
2022/10/12 05:26:16;;;;;;;23.10;14.85;;;11.20;60.80;;;;;;7369847;19;20006;-70
2022/10/12 05:28:46;;;;;;;21.95;15.13;;;11.20;59.50;;;;;;7369123;19;20026;-69
2022/10/12 05:31:16;;;;;;;24.25;15.63;;;11.20;59.70;;;;;;7369866;19;20078;-69
2022/10/12 05:33:45;;;;;;;25.23;14.65;;;11.20;59.90;;;;;;7368525;19;20038;-68
2022/10/12 05:36:18;;;;;;;26.90;15.70;;;11.20;60.20;;;;;;7391678;19;20510;-69
2022/10/12 05:38:47;;;;;;;22.65;15.15;;;11.30;60.10;;;;;;7367542;19;20015;-71
2022/10/12 05:41:17;;;;;;;28.52;15.65;;;11.30;59.80;;;;;;7369674;19;20239;-69
2022/10/12 05:43:47;;;;;;;30.27;15.73;;;11.30;59.90;;;;;;7369118;19;20121;-69
2022/10/12 05:46:17;;;;;;;28.33;15.32;;;11.30;59.70;;;;;;7369221;19;20010;-71
2022/10/12 05:48:46;;;;;;;23.83;15.23;;;11.40;58.70;;;;;;7368175;19;20015;-69
2022/10/12 05:51:19;;;;;;;30.15;15.73;;;11.30;57.90;;;;;;7391403;19;20027;-70
2022/10/12 05:53:49;;;;;;;26.48;15.05;;;11.30;58.50;;;;;;7368949;19;20013;-70
2022/10/12 05:56:19;;;;;;;20.02;14.85;;;11.40;58.70;;;;;;7369342;19;20010;-71
2022/10/12 05:58:48;;;;;;;22.05;15.68;;;11.30;58.40;;;;;;7367479;19;20034;-69
2022/10/12 06:01:18;;;;;;;25.30;14.68;;;11.30;58.60;;;;;;7369004;19;20007;-70
2022/10/12 06:03:48;;;;;;;22.45;15.48;;;11.30;58.60;;;;;;7368694;19;20004;-70
2022/10/12 06:06:20;;;;;;;33.22;14.70;;;11.30;58.70;;;;;;7390888;19;20011;-69
2022/10/12 06:08:50;;;;;;;23.58;15.88;;;11.30;58.70;;;;;;7367981;19;20026;-69
2022/10/12 06:11:20;;;;;;;33.38;17.00;;;11.30;59.10;;;;;;7366654;19;20018;-69
2022/10/12 06:13:50;;;;;;;31.17;16.85;;;11.40;59.30;;;;;;7368593;19;20006;-69
2022/10/12 06:16:19;;;;;;;25.50;15.40;;;11.30;58.90;;;;;;7369079;19;20030;-69
2022/10/12 06:18:49;;;;;;;23.10;16.10;;;11.40;59.50;;;;;;7366844;19;20475;-70
2022/10/12 06:21:22;;;;;;;24.23;15.48;;;11.40;58.70;;;;;;7389438;19;20588;-71
2022/10/12 06:24:07;;;;;;;27.45;15.93;;;11.40;58.70;;;;;;7368094;19;20006;-69
2022/10/12 06:26:37;;;;;;;26.45;15.07;;;11.40;58.80;;;;;;7366679;19;20006;-70
2022/10/12 06:29:07;;;;;;;22.35;14.43;;;11.50;58.40;;;;;;7368048;19;20019;-69
2022/10/12 06:31:38;;;;;;;26.52;16.15;;;11.50;58.70;;;;;;7368141;19;20773;-70
2022/10/12 06:34:08;;;;;;;25.73;15.82;;;11.50;58.80;;;;;;7366398;19;20238;-70
2022/10/12 06:36:40;;;;;;;26.73;14.80;;;11.50;58.50;;;;;;7366670;19;20018;-69
2022/10/12 06:39:11;;;;;;;29.23;15.98;;;11.60;58.90;;;;;;7388501;19;20079;-70
2022/10/12 06:41:40;;;;;;;23.83;15.40;;;11.70;58.40;;;;;;7367538;19;20018;-69
2022/10/12 06:44:10;;;;;;;26.35;15.40;;;11.70;55.80;;;;;;7366320;19;20491;-70
2022/10/12 06:46:40;;;;;;;25.88;15.10;;;11.70;55.90;;;;;;7365970;19;20015;-69
2022/10/12 06:49:11;;;;;;;23.55;15.55;;;11.80;56.40;;;;;;7368524;19;20006;-69
2022/10/12 06:51:43;;;;;;;26.27;15.20;;;11.80;55.80;;;;;;7367240;19;20014;-70
2022/10/12 06:54:13;;;;;;;23.13;15.50;;;11.80;55.30;;;;;;7389769;19;20651;-70
2022/10/12 06:56:43;;;;;;;21.92;15.57;;;11.90;55.70;;;;;;7365444;19;20015;-70
2022/10/12 06:59:14;;;;;;;21.45;15.73;;;11.90;55.20;;;;;;7365585;19;20006;-69
2022/10/12 07:01:43;;;;;;;28.33;15.85;;;11.90;55.20;;;;;;7367211;19;20541;-69
2022/10/12 07:04:13;;;;;;;21.42;14.23;;;12.00;55.10;;;;;;7366812;19;20031;-69
2022/10/12 07:06:46;;;;;;;26.35;15.73;;;12.10;55.30;;;;;;7365393;19;20034;-69
2022/10/12 07:09:16;;;;;;;26.92;15.60;;;12.20;54.70;;;;;;7388298;19;20030;-70
2022/10/12 07:11:46;;;;;;;27.50;15.32;;;12.20;53.70;;;;;;7366381;19;20018;-70
2022/10/12 07:14:16;;;;;;;27.95;15.52;;;12.20;53.40;;;;;;7367235;19;20015;-70
2022/10/12 07:16:46;;;;;;;23.90;15.02;;;12.30;52.60;;;;;;7365142;19;20038;-69
2022/10/12 07:19:21;;;;;;;24.42;15.75;;;12.30;51.30;;;;;;7365160;19;20478;-70
2022/10/12 07:21:54;;;;;;;27.00;15.93;;;12.40;51.60;;;;;;7364935;19;20017;-70
2022/10/12 07:24:24;;;;;;;39.33;20.73;;;12.50;52.10;;;;;;7391946;19;20018;-70
2022/10/12 07:26:54;;;;;;;40.50;24.15;;;12.70;51.90;;;;;;7370243;19;20050;-70
2022/10/12 07:29:23;;;;;;;48.25;26.40;;;12.90;52.00;;;;;;7372477;19;20013;-71
2022/10/12 07:31:53;;;;;;;46.42;24.42;;;12.90;51.20;;;;;;7371054;19;20010;-70
2022/10/12 07:34:23;;;;;;;35.45;23.70;;;12.90;51.60;;;;;;7372114;19;20011;-71
2022/10/12 07:36:55;;;;;;;37.03;23.55;;;13.10;51.10;;;;;;7369923;19;20015;-70
2022/10/12 07:39:28;;;;;;;34.88;22.42;;;13.20;48.90;;;;;;7393682;19;20036;-70
2022/10/12 07:41:58;;;;;;;30.85;20.40;;;13.30;48.30;;;;;;7394999;19;20030;-70
2022/10/12 07:44:29;;;;;;;34.58;20.55;;;13.30;45.90;;;;;;7396858;19;20018;-71
2022/10/12 07:46:59;;;;;;;36.60;20.20;;;13.40;44.30;;;;;;7393104;19;20033;-70
2022/10/12 07:49:28;;;;;;;31.67;20.25;;;13.50;42.80;;;;;;7396113;19;20018;-70
2022/10/12 07:52:01;;;;;;;33.97;21.05;;;13.70;44.40;;;;;;7394115;19;20022;-70
2022/10/12 07:54:31;;;;;;;31.35;20.80;;;13.90;41.90;;;;;;7395895;19;20018;-69
2022/10/12 07:57:01;;;;;;;27.65;20.00;;;13.80;39.20;;;;;;7391888;19;20018;-69
2022/10/12 07:59:31;;;;;;;29.60;19.85;;;13.80;40.00;;;;;;7392883;19;20018;-70
2022/10/12 08:02:01;;;;;;;27.75;18.02;;;14.00;39.80;;;;;;7393735;19;20562;-70
2022/10/12 08:04:31;;;;;;;28.63;19.92;;;14.10;36.70;;;;;;7396151;19;20022;-71
2022/10/12 08:07:03;;;;;;;28.92;19.17;;;14.20;37.30;;;;;;7392332;19;20014;-70
2022/10/12 08:09:34;;;;;;;26.85;19.15;;;14.30;34.50;;;;;;7395618;19;20025;-71
2022/10/12 08:12:05;;;;;;;23.63;17.17;;;14.30;34.50;;;;;;7393405;19;20010;-71
2022/10/12 08:14:36;;;;;;;25.98;18.02;;;14.30;32.20;;;;;;7395546;19;20011;-71
2022/10/12 08:17:05;;;;;;;27.17;18.25;;;14.50;32.40;;;;;;7389579;19;20386;-69
2022/10/12 08:19:37;;;;;;;26.17;18.42;;;14.60;30.10;;;;;;7392658;19;20357;-70
2022/10/12 08:22:10;;;;;;;25.92;19.05;;;14.50;27.80;;;;;;7394342;19;20064;-70
2022/10/12 08:24:41;;;;;;;26.73;18.40;;;14.50;30.00;;;;;;7394559;19;20029;-70
2022/10/12 08:27:10;;;;;;;26.98;18.85;;;14.50;29.90;;;;;;7375552;19;20038;-70
2022/10/12 08:29:40;;;;;;;30.15;19.15;;;14.40;28.90;;;;;;7386190;19;20030;-70
2022/10/12 08:32:10;;;;;;;29.88;19.40;;;14.30;30.10;;;;;;7391715;19;20026;-71
2022/10/12 08:34:40;;;;;;;27.83;18.80;;;14.50;30.10;;;;;;7392603;19;20015;-71
2022/10/12 08:37:12;;;;;;;27.52;18.73;;;14.80;29.30;;;;;;7387047;19;20015;-71
2022/10/12 08:39:42;;;;;;;23.25;16.50;;;14.80;28.60;;;;;;7386513;19;20014;-71
2022/10/12 08:42:24;;;;;;;27.13;17.20;;;15.00;26.70;;;;;;7390091;19;20006;-70
2022/10/12 08:45:05;;;;;;;24.45;18.25;;;15.00;26.80;;;;;;7392098;19;20007;-70
2022/10/12 08:47:42;;;;;;;25.13;17.73;;;15.00;26.30;;;;;;7388551;19;20045;-70
2022/10/12 08:50:19;;;;;;;28.30;17.25;;;15.00;25.40;;;;;;7385823;19;20414;-70
2022/10/12 08:52:58;;;;;;;27.50;17.35;;;15.20;25.60;;;;;;7358307;19;20018;-70
2022/10/12 08:55:37;;;;;;;27.50;16.92;;;15.30;23.70;;;;;;7364455;19;20014;-71
2022/10/12 08:58:17;;;;;;;26.08;16.13;;;15.40;22.10;;;;;;7360349;19;20105;-71
2022/10/12 09:00:49;;;;;;;26.90;18.02;;;15.50;22.20;;;;;;7366172;19;20010;-71
2022/10/12 09:03:30;;;;;;;23.48;17.17;;;15.70;19.30;;;;;;7367501;19;20010;-71
2022/10/12 09:06:09;;;;;;;24.55;17.58;;;15.80;21.40;;;;;;7366093;19;20018;-70
2022/10/12 09:08:51;;;;;;;27.90;17.50;;;15.80;18.40;;;;;;7380072;19;20022;-71
2022/10/12 09:11:34;;;;;;;26.33;17.55;;;16.00;19.10;;;;;;7366938;19;20006;-70
2022/10/12 09:14:08;;;;;;;28.10;16.30;;;15.90;18.50;;;;;;7366102;19;20021;-71
2022/10/12 09:16:41;;;;;;;;;;;16.00;17.60;;;;;;7366959;19;20343;-71
2022/10/12 09:19:17;;;;;;;24.02;17.33;;;16.10;17.50;;;;;;7360196;19;19939;-70
2022/10/12 09:21:49;;;;;;;23.83;16.70;;;16.10;16.20;;;;;;7363091;19;20034;-71
2022/10/12 09:24:27;;;;;;;28.48;16.92;;;16.20;15.50;;;;;;7365814;19;20034;-70
2022/10/12 09:27:02;;;;;;;24.17;15.57;;;16.40;13.30;;;;;;7363995;19;20024;-71
2022/10/12 09:29:33;;;;;;;24.83;15.52;;;16.40;12.20;;;;;;7380145;19;20010;-71
2022/10/12 09:32:30;;;;;;;24.15;15.45;;;16.30;10.90;;;;;;7365459;19;20070;-70
2022/10/12 09:35:01;;;;;;;27.30;16.75;;;16.70;12.30;;;;;;7366338;19;20034;-71
2022/10/12 09:37:34;;;;;;;27.02;17.05;;;16.70;8.80;;;;;;7365162;19;20466;-70
2022/10/12 09:40:08;;;;;;;24.27;16.40;;;16.70;8.20;;;;;;7359249;19;20014;-70
2022/10/12 09:42:38;;;;;;;24.38;16.38;;;16.70;7.20;;;;;;7364719;19;20505;-70
2022/10/12 09:45:17;;;;;;;23.33;15.05;;;16.80;8.00;;;;;;7356902;19;20019;-71
2022/10/12 09:48:16;;;;;;;23.33;14.43;;;16.90;5.90;;;;;;7372633;19;20454;-71
2022/10/12 09:50:50;;;;;;;26.35;14.35;;;16.90;5.90;;;;;;7252599;19;2004674;-71
2022/10/12 09:53:30;;;;;;;22.83;14.35;;;16.40;5.20;;;;;;7378360;19;20015;-71
2022/10/12 09:56:07;;;;;;;24.10;16.65;;;16.60;7.70;;;;;;7353148;19;20015;-71
2022/10/12 09:58:44;;;;;;;29.15;19.08;;;16.80;7.50;;;;;;7346987;19;20021;-71
2022/10/12 10:01:23;;;;;;;33.70;16.58;;;16.90;5.40;;;;;;7352346;19;20014;-71
2022/10/12 10:04:10;;;;;;;23.10;15.98;;;16.90;6.10;;;;;;7353550;19;20035;-71
2022/10/12 10:06:42;;;;;;;24.45;16.02;;;16.60;5.80;;;;;;7351929;19;20014;-70
2022/10/12 10:09:31;;;;;;;26.25;16.63;;;16.50;6.40;;;;;;7347711;19;20015;-71
2022/10/12 10:12:15;;;;;;;26.52;16.50;;;16.40;6.00;;;;;;7353403;19;20382;-71
2022/10/12 10:14:46;;;;;;;28.55;15.93;;;16.60;7.80;;;;;;7376541;19;20416;-71
2022/10/12 10:17:17;;;;;;;28.83;16.45;;;16.40;8.40;;;;;;7352038;19;20011;-70
2022/10/12 10:19:53;;;;;;;27.13;16.63;;;16.30;8.90;;;;;;7345740;19;20474;-71
2022/10/12 10:22:25;;;;;;;26.88;16.33;;;16.30;10.10;;;;;;7353088;19;20014;-71
2022/10/12 10:24:56;;;;;;;27.20;18.15;;;16.40;8.50;;;;;;7354035;19;20006;-71
2022/10/12 10:27:36;;;;;;;25.48;16.42;;;16.40;9.80;;;;;;7352476;19;20014;-71
2022/10/12 10:30:26;;;;;;;28.40;16.77;;;16.30;8.70;;;;;;7348257;19;20022;-71
2022/10/12 10:33:18;;;;;;;29.70;16.65;;;16.40;8.80;;;;;;7353957;19;20018;-72
2022/10/12 10:35:58;;;;;;;23.50;16.17;;;16.40;8.20;;;;;;7375373;19;20384;-71
2022/10/12 10:38:28;;;;;;;26.30;16.20;;;16.30;8.40;;;;;;7348937;19;20018;-71
2022/10/12 10:41:01;;;;;;;23.35;16.63;;;16.40;7.00;;;;;;7351627;19;20025;-71
2022/10/12 10:43:33;;;;;;;26.17;15.75;;;16.30;7.20;;;;;;7352427;19;20042;-71
2022/10/12 10:46:06;;;;;;;30.58;16.05;;;16.20;8.40;;;;;;7353094;19;20014;-70
2022/10/12 10:48:54;;;;;;;29.50;17.38;;;16.40;8.50;;;;;;7347664;19;20038;-71
2022/10/12 10:51:40;;;;;;;28.70;14.63;;;16.60;7.20;;;;;;7351725;19;20006;-72
2022/10/12 10:54:24;;;;;;;22.17;14.60;;;16.70;6.40;;;;;;7352593;19;20012;-70
2022/10/12 10:56:59;;;;;;;25.50;14.20;;;16.60;4.70;;;;;;7349768;19;20021;-70
2022/10/12 10:59:40;;;;;;;23.63;14.00;;;16.60;2.50;;;;;;7365730;19;20612;-70
2022/10/12 11:02:22;;;;;;;20.02;13.35;;;16.70;1.80;;;;;;7349237;19;20010;-71
2022/10/12 11:04:56;;;;;;;22.00;13.82;;;16.90;4.20;;;;;;7352720;19;20007;-71
2022/10/12 11:07:29;;;;;;;;;;;16.90;2.40;;;;;;7351758;19;20035;-70
2022/10/12 11:10:02;;;;;;;22.55;14.35;;;16.90;1.00;;;;;;7343965;19;19919;-71
2022/10/12 11:12:35;;;;;;;19.70;12.63;;;17.00;1.50;;;;;;7351571;19;20014;-71
2022/10/12 11:15:18;;;;;;;16.43;11.27;;;17.10;1.00;;;;;;7352386;19;20022;-70
2022/10/12 11:17:50;;;;;;;16.60;11.82;;;17.10;1.00;;;;;;7371334;19;20478;-71
2022/10/12 11:20:32;;;;;;;18.02;11.68;;;17.20;1.00;;;;;;7346980;19;20494;-72
2022/10/12 11:23:06;;;;;;;20.70;11.82;;;17.30;1.00;;;;;;7350134;19;20018;-70
2022/10/12 11:25:42;;;;;;;17.35;11.60;;;17.30;1.00;;;;;;7354045;19;20058;-71
2022/10/12 11:28:18;;;;;;;17.23;11.93;;;17.50;1.00;;;;;;7343999;19;20290;-72
2022/10/12 11:30:52;;;;;;;21.80;12.90;;;17.60;1.00;;;;;;7352242;19;20015;-71
2022/10/12 11:33:24;;;;;;;20.85;11.60;;;17.50;1.00;;;;;;7357660;19;20010;-72
2022/10/12 11:35:56;;;;;;;17.77;11.73;;;17.00;1.00;;;;;;7362061;19;20015;-72
2022/10/12 11:38:30;;;;;;;20.00;12.60;;;17.10;1.00;;;;;;7376762;19;20022;-72
2022/10/12 11:41:06;;;;;;;18.10;10.82;;;16.70;1.00;;;;;;7360555;19;20010;-71
2022/10/12 11:44:02;;;;;;;22.40;10.30;;;17.20;1.00;;;;;;7362052;19;20496;-70
2022/10/12 11:46:38;;;;;;;16.17;9.98;;;17.60;1.00;;;;;;7360191;19;20119;-70
2022/10/12 11:49:15;;;;;;;19.40;10.70;;;17.60;1.00;;;;;;7354382;19;20018;-71
2022/10/12 11:51:50;;;;;;;18.38;11.10;;;17.50;1.00;;;;;;7362412;19;20014;-70
2022/10/12 11:54:29;;;;;;;18.23;10.70;;;17.70;1.00;;;;;;7360182;19;20046;-70
2022/10/12 11:57:05;;;;;;;16.92;10.68;;;17.60;1.00;;;;;;7357995;19;20011;-72
2022/10/12 11:59:39;;;;;;;16.33;10.73;;;17.60;1.00;;;;;;7376386;19;20014;-71
2022/10/12 12:02:20;;;;;;;14.63;9.88;;;17.60;1.00;;;;;;7359122;19;20061;-71
2022/10/12 12:04:50;;;;;;;17.10;10.48;;;17.30;1.00;;;;;;7361903;19;20021;-70
2022/10/12 12:07:46;;;;;;;19.20;10.27;;;17.50;1.00;;;;;;7362163;19;20494;-71
2022/10/12 12:11:00;;;;;;;18.60;10.25;;;17.50;1.00;;;;;;7356666;19;20022;-71
2022/10/12 12:13:30;;;;;;;14.82;9.75;;;17.70;1.00;;;;;;7365541;19;20326;-70
2022/10/12 12:16:28;;;;;;;16.83;10.23;;;17.70;1.00;;;;;;7367576;19;20134;-70
2022/10/12 12:19:38;;;;;;;19.23;9.85;;;17.60;1.00;;;;;;7358797;19;20011;-71
2022/10/12 12:22:27;;;;;;;18.38;9.73;;;17.40;1.00;;;;;;7366217;19;20025;-71
2022/10/12 12:25:05;;;;;;;16.73;9.80;;;17.70;1.00;;;;;;7368922;19;20054;-71
2022/10/12 12:27:41;;;;;;;19.85;10.02;;;18.10;1.00;;;;;;7364376;19;20017;-71
2022/10/12 12:30:26;;;;;;;15.50;9.73;;;17.90;1.00;;;;;;7359072;19;20007;-69
2022/10/12 12:32:58;;;;;;;16.20;10.27;;;17.40;1.00;;;;;;7360870;19;20010;-72
2022/10/12 12:35:32;;;;;;;18.17;10.10;;;17.80;1.00;;;;;;7386920;19;20010;-71
2022/10/12 12:38:18;;;;;;;16.40;9.48;;;17.70;1.00;;;;;;7362446;19;20506;-71
2022/10/12 12:41:16;;;;;;;17.00;9.02;;;17.80;1.00;;;;;;7365321;19;20015;-71
2022/10/12 12:43:55;;;;;;;15.73;9.07;;;17.80;1.00;;;;;;7366265;19;20025;-71
2022/10/12 12:46:47;;;;;;;20.40;10.05;;;18.00;1.00;;;;;;7367317;19;20014;-71
2022/10/12 12:49:39;;;;;;;18.40;9.68;;;18.00;1.00;;;;;;7356934;19;20021;-72
2022/10/12 12:52:15;;;;;;;17.77;9.65;;;17.60;1.00;;;;;;7366269;19;20042;-71
2022/10/12 12:55:06;;;;;;;16.42;9.57;;;17.80;1.00;;;;;;7367571;19;20568;-72
2022/10/12 12:58:08;;;;;;;14.73;9.45;;;17.80;1.00;;;;;;7364911;19;20058;-72
2022/10/12 13:00:48;;;;;;;15.90;9.18;;;17.60;1.00;;;;;;7365203;19;20068;-71
2022/10/12 13:03:50;;;;;;;16.33;9.30;;;17.50;1.00;;;;;;7363609;19;20014;-70
2022/10/12 13:06:50;;;;;;;15.70;8.57;;;17.70;1.00;;;;;;7366546;19;20034;-70
2022/10/12 13:09:50;;;;;;;14.48;8.32;;;17.90;1.00;;;;;;7358725;19;20339;-70